sensor_id;sensor_type;location;lat;lon;timestamp;P1;durP1;ratioP1;P2;durP2;ratioP2
18399;SDS011;9326;49.468;11.008;2023-04-30T05:02:16;12.83;;;10.90;;
18399;SDS011;9326;49.468;11.008;2023-04-30T05:04:44;11.90;;;10.70;;
18399;SDS011;9326;49.468;11.008;2023-04-30T05:07:14;12.60;;;10.27;;
18399;SDS011;9326;49.468;11.008;2023-04-30T05:09:41;13.20;;;10.67;;
18399;SDS011;9326;49.468;11.008;2023-04-30T05:12:08;12.17;;;10.10;;
18399;SDS011;9326;49.468;11.008;2023-04-30T05:14:35;12.00;;;10.80;;
18399;SDS011;9326;49.468;11.008;2023-04-30T05:17:02;12.37;;;10.67;;
18399;SDS011;9326;49.468;11.008;2023-04-30T05:19:31;11.33;;;10.10;;
18399;SDS011;9326;49.468;11.008;2023-04-30T05:21:58;11.30;;;10.20;;
18399;SDS011;9326;49.468;11.008;2023-04-30T05:24:25;10.90;;;9.80;;
18399;SDS011;9326;49.468;11.008;2023-04-30T05:26:52;11.93;;;10.30;;
18399;SDS011;9326;49.468;11.008;2023-04-30T05:29:19;11.47;;;10.27;;
18399;SDS011;9326;49.468;11.008;2023-04-30T05:31:46;11.27;;;9.97;;
18399;SDS011;9326;49.468;11.008;2023-04-30T05:34:13;11.83;;;10.33;;
18399;SDS011;9326;49.468;11.008;2023-04-30T05:36:42;11.07;;;10.07;;
18399;SDS011;9326;49.468;11.008;2023-04-30T05:39:09;12.57;;;10.80;;
18399;SDS011;9326;49.468;11.008;2023-04-30T05:41:36;10.97;;;9.33;;
18399;SDS011;9326;49.468;11.008;2023-04-30T05:44:03;10.67;;;9.63;;
18399;SDS011;9326;49.468;11.008;2023-04-30T05:46:32;11.40;;;10.17;;
18399;SDS011;9326;49.468;11.008;2023-04-30T05:48:59;11.87;;;9.77;;
18399;SDS011;9326;49.468;11.008;2023-04-30T05:51:26;14.10;;;10.13;;
18399;SDS011;9326;49.468;11.008;2023-04-30T05:53:54;11.10;;;10.00;;
18399;SDS011;9326;49.468;11.008;2023-04-30T05:56:22;10.40;;;9.30;;
18399;SDS011;9326;49.468;11.008;2023-04-30T05:58:50;10.37;;;9.30;;
18399;SDS011;9326;49.468;11.008;2023-04-30T06:01:17;10.70;;;9.70;;
18399;SDS011;9326;49.468;11.008;2023-04-30T06:03:46;11.67;;;10.17;;
18399;SDS011;9326;49.468;11.008;2023-04-30T06:06:13;11.90;;;10.17;;
18399;SDS011;9326;49.468;11.008;2023-04-30T06:08:40;11.03;;;9.93;;
18399;SDS011;9326;49.468;11.008;2023-04-30T06:11:11;12.53;;;9.63;;
18399;SDS011;9326;49.468;11.008;2023-04-30T06:13:39;10.93;;;9.83;;
18399;SDS011;9326;49.468;11.008;2023-04-30T06:16:06;11.00;;;9.17;;
18399;SDS011;9326;49.468;11.008;2023-04-30T06:18:33;7.87;;;7.07;;
18399;SDS011;9326;49.468;11.008;2023-04-30T06:21:01;10.00;;;9.03;;
18399;SDS011;9326;49.468;11.008;2023-04-30T06:23:28;10.10;;;8.77;;
18399;SDS011;9326;49.468;11.008;2023-04-30T06:25:55;10.93;;;9.27;;
18399;SDS011;9326;49.468;11.008;2023-04-30T06:28:23;9.47;;;8.47;;
18399;SDS011;9326;49.468;11.008;2023-04-30T06:30:50;9.57;;;8.60;;
18399;SDS011;9326;49.468;11.008;2023-04-30T06:33:18;9.80;;;8.80;;
18399;SDS011;9326;49.468;11.008;2023-04-30T06:35:45;9.47;;;8.53;;
18399;SDS011;9326;49.468;11.008;2023-04-30T06:38:12;10.27;;;8.13;;
18399;SDS011;9326;49.468;11.008;2023-04-30T06:40:39;8.33;;;7.47;;
18399;SDS011;9326;49.468;11.008;2023-04-30T06:43:06;8.60;;;7.70;;
18399;SDS011;9326;49.468;11.008;2023-04-30T06:45:35;7.53;;;6.73;;
18399;SDS011;9326;49.468;11.008;2023-04-30T06:48:02;8.57;;;7.47;;
18399;SDS011;9326;49.468;11.008;2023-04-30T06:50:29;8.57;;;7.23;;
18399;SDS011;9326;49.468;11.008;2023-04-30T06:52:56;7.67;;;7.00;;
18399;SDS011;9326;49.468;11.008;2023-04-30T06:55:23;8.37;;;7.57;;
18399;SDS011;9326;49.468;11.008;2023-04-30T06:57:52;8.23;;;6.80;;
18399;SDS011;9326;49.468;11.008;2023-04-30T07:00:20;8.13;;;7.33;;
18399;SDS011;9326;49.468;11.008;2023-04-30T07:02:48;7.27;;;6.50;;
18399;SDS011;9326;49.468;11.008;2023-04-30T07:05:16;7.57;;;6.73;;
18399;SDS011;9326;49.468;11.008;2023-04-30T07:07:43;7.70;;;7.00;;
18399;SDS011;9326;49.468;11.008;2023-04-30T07:10:10;8.63;;;6.73;;
18399;SDS011;9326;49.468;11.008;2023-04-30T07:12:37;7.30;;;6.60;;
18399;SDS011;9326;49.468;11.008;2023-04-30T07:15:04;7.30;;;6.70;;
18399;SDS011;9326;49.468;11.008;2023-04-30T07:17:31;10.03;;;7.00;;
18399;SDS011;9326;49.468;11.008;2023-04-30T07:20:00;7.43;;;6.73;;
18399;SDS011;9326;49.468;11.008;2023-04-30T07:22:28;7.73;;;6.67;;
18399;SDS011;9326;49.468;11.008;2023-04-30T07:24:55;7.77;;;6.67;;
18399;SDS011;9326;49.468;11.008;2023-04-30T07:27:22;9.80;;;7.20;;
18399;SDS011;9326;49.468;11.008;2023-04-30T07:29:50;7.17;;;6.57;;
18399;SDS011;9326;49.468;11.008;2023-04-30T07:32:17;7.87;;;6.27;;
18399;SDS011;9326;49.468;11.008;2023-04-30T07:34:44;6.83;;;6.20;;
18399;SDS011;9326;49.468;11.008;2023-04-30T07:37:13;6.90;;;6.23;;
18399;SDS011;9326;49.468;11.008;2023-04-30T07:39:40;6.47;;;5.83;;
18399;SDS011;9326;49.468;11.008;2023-04-30T07:42:07;6.83;;;6.23;;
18399;SDS011;9326;49.468;11.008;2023-04-30T07:44:35;6.53;;;5.93;;
18399;SDS011;9326;49.468;11.008;2023-04-30T07:47:02;6.77;;;6.07;;
18399;SDS011;9326;49.468;11.008;2023-04-30T07:49:29;7.77;;;6.10;;
18399;SDS011;9326;49.468;11.008;2023-04-30T07:51:56;8.63;;;6.07;;
18399;SDS011;9326;49.468;11.008;2023-04-30T07:54:26;5.87;;;5.33;;
18399;SDS011;9326;49.468;11.008;2023-04-30T07:56:53;5.90;;;5.30;;
18399;SDS011;9326;49.468;11.008;2023-04-30T07:59:20;5.47;;;5.07;;
18399;SDS011;9326;49.468;11.008;2023-04-30T08:01:48;5.17;;;4.77;;
18399;SDS011;9326;49.468;11.008;2023-04-30T08:04:15;7.00;;;5.77;;
18399;SDS011;9326;49.468;11.008;2023-04-30T08:06:42;5.20;;;4.70;;
18399;SDS011;9326;49.468;11.008;2023-04-30T08:09:09;4.90;;;4.50;;
18399;SDS011;9326;49.468;11.008;2023-04-30T08:11:37;4.80;;;4.30;;
18399;SDS011;9326;49.468;11.008;2023-04-30T08:14:05;4.77;;;4.37;;
18399;SDS011;9326;49.468;11.008;2023-04-30T08:16:32;5.03;;;4.53;;
18399;SDS011;9326;49.468;11.008;2023-04-30T08:18:59;4.30;;;3.90;;
18399;SDS011;9326;49.468;11.008;2023-04-30T08:21:26;5.30;;;3.87;;
18399;SDS011;9326;49.468;11.008;2023-04-30T08:23:53;4.57;;;4.17;;
18399;SDS011;9326;49.468;11.008;2023-04-30T08:26:21;5.07;;;4.00;;
18399;SDS011;9326;49.468;11.008;2023-04-30T08:28:49;4.37;;;3.97;;
18399;SDS011;9326;49.468;11.008;2023-04-30T08:31:17;4.27;;;3.67;;
18399;SDS011;9326;49.468;11.008;2023-04-30T08:33:44;3.93;;;3.43;;
18399;SDS011;9326;49.468;11.008;2023-04-30T08:36:11;3.70;;;3.40;;
18399;SDS011;9326;49.468;11.008;2023-04-30T08:38:38;4.23;;;3.43;;
18399;SDS011;9326;49.468;11.008;2023-04-30T08:41:08;4.63;;;3.50;;
18399;SDS011;9326;49.468;11.008;2023-04-30T08:43:35;3.57;;;3.27;;
18399;SDS011;9326;49.468;11.008;2023-04-30T08:46:04;4.77;;;3.07;;
18399;SDS011;9326;49.468;11.008;2023-04-30T08:48:31;3.87;;;3.57;;
18399;SDS011;9326;49.468;11.008;2023-04-30T08:50:58;3.60;;;3.30;;
18399;SDS011;9326;49.468;11.008;2023-04-30T08:53:26;4.07;;;3.10;;
18399;SDS011;9326;49.468;11.008;2023-04-30T08:55:53;3.10;;;2.90;;
18399;SDS011;9326;49.468;11.008;2023-04-30T08:58:20;3.33;;;3.10;;
18399;SDS011;9326;49.468;11.008;2023-04-30T09:00:47;3.77;;;3.43;;
18399;SDS011;9326;49.468;11.008;2023-04-30T09:03:15;3.13;;;2.77;;
18399;SDS011;9326;49.468;11.008;2023-04-30T09:05:42;4.20;;;2.93;;
18399;SDS011;9326;49.468;11.008;2023-04-30T09:08:10;3.60;;;2.90;;
18399;SDS011;9326;49.468;11.008;2023-04-30T09:10:42;3.40;;;3.10;;
18399;SDS011;9326;49.468;11.008;2023-04-30T09:13:10;2.80;;;2.60;;
18399;SDS011;9326;49.468;11.008;2023-04-30T09:15:38;2.97;;;2.73;;
18399;SDS011;9326;49.468;11.008;2023-04-30T09:18:06;3.77;;;3.10;;
18399;SDS011;9326;49.468;11.008;2023-04-30T09:20:35;3.23;;;2.70;;
18399;SDS011;9326;49.468;11.008;2023-04-30T09:23:06;2.80;;;2.47;;
18399;SDS011;9326;49.468;11.008;2023-04-30T09:25:39;2.77;;;2.47;;
18399;SDS011;9326;49.468;11.008;2023-04-30T09:28:07;3.00;;;2.80;;
18399;SDS011;9326;49.468;11.008;2023-04-30T09:30:35;2.77;;;2.50;;
18399;SDS011;9326;49.468;11.008;2023-04-30T09:33:02;2.60;;;2.40;;
18399;SDS011;9326;49.468;11.008;2023-04-30T09:35:30;2.70;;;2.50;;
18399;SDS011;9326;49.468;11.008;2023-04-30T09:37:59;3.40;;;2.50;;
18399;SDS011;9326;49.468;11.008;2023-04-30T09:40:34;5.17;;;2.87;;
18399;SDS011;9326;49.468;11.008;2023-04-30T09:43:01;2.60;;;2.40;;
18399;SDS011;9326;49.468;11.008;2023-04-30T09:45:38;2.57;;;2.37;;
18399;SDS011;9326;49.468;11.008;2023-04-30T09:48:05;2.50;;;2.30;;
18399;SDS011;9326;49.468;11.008;2023-04-30T09:50:36;2.50;;;2.23;;
18399;SDS011;9326;49.468;11.008;2023-04-30T09:53:05;2.77;;;2.30;;
18399;SDS011;9326;49.468;11.008;2023-04-30T09:55:33;3.23;;;2.53;;
18399;SDS011;9326;49.468;11.008;2023-04-30T09:58:01;3.03;;;2.30;;
18399;SDS011;9326;49.468;11.008;2023-04-30T10:00:29;2.93;;;2.73;;
18399;SDS011;9326;49.468;11.008;2023-04-30T10:02:57;2.20;;;2.10;;
18399;SDS011;9326;49.468;11.008;2023-04-30T10:05:25;3.43;;;2.47;;
18399;SDS011;9326;49.468;11.008;2023-04-30T10:07:52;3.87;;;2.57;;
18399;SDS011;9326;49.468;11.008;2023-04-30T10:10:21;2.40;;;2.20;;
18399;SDS011;9326;49.468;11.008;2023-04-30T10:12:49;2.40;;;2.20;;
18399;SDS011;9326;49.468;11.008;2023-04-30T10:15:18;2.50;;;2.00;;
18399;SDS011;9326;49.468;11.008;2023-04-30T10:17:46;2.47;;;2.33;;
18399;SDS011;9326;49.468;11.008;2023-04-30T10:20:15;2.00;;;1.90;;
18399;SDS011;9326;49.468;11.008;2023-04-30T10:22:43;2.10;;;2.00;;
18399;SDS011;9326;49.468;11.008;2023-04-30T10:25:11;2.00;;;1.90;;
18399;SDS011;9326;49.468;11.008;2023-04-30T10:27:40;2.27;;;1.90;;
18399;SDS011;9326;49.468;11.008;2023-04-30T10:30:08;1.90;;;1.80;;
18399;SDS011;9326;49.468;11.008;2023-04-30T10:32:36;2.37;;;2.17;;
18399;SDS011;9326;49.468;11.008;2023-04-30T10:35:07;2.40;;;2.20;;
18399;SDS011;9326;49.468;11.008;2023-04-30T10:37:37;3.30;;;2.20;;
18399;SDS011;9326;49.468;11.008;2023-04-30T10:40:05;2.70;;;2.03;;
18399;SDS011;9326;49.468;11.008;2023-04-30T10:42:34;2.93;;;2.73;;
18399;SDS011;9326;49.468;11.008;2023-04-30T10:45:02;2.43;;;2.03;;
18399;SDS011;9326;49.468;11.008;2023-04-30T10:47:30;2.23;;;2.07;;
18399;SDS011;9326;49.468;11.008;2023-04-30T10:50:01;2.17;;;2.07;;
18399;SDS011;9326;49.468;11.008;2023-04-30T10:52:28;2.50;;;2.30;;
18399;SDS011;9326;49.468;11.008;2023-04-30T10:54:55;2.00;;;1.80;;
18399;SDS011;9326;49.468;11.008;2023-04-30T10:57:22;2.43;;;2.30;;
18399;SDS011;9326;49.468;11.008;2023-04-30T10:59:50;2.17;;;2.03;;
18399;SDS011;9326;49.468;11.008;2023-04-30T11:02:19;2.17;;;1.90;;
18399;SDS011;9326;49.468;11.008;2023-04-30T11:07:32;1.90;;;1.80;;
18399;SDS011;9326;49.468;11.008;2023-04-30T11:10:00;3.07;;;2.40;;
18399;SDS011;9326;49.468;11.008;2023-04-30T11:12:27;2.40;;;2.20;;
18399;SDS011;9326;49.468;11.008;2023-04-30T11:14:59;3.13;;;2.40;;
18399;SDS011;9326;49.468;11.008;2023-04-30T11:17:27;2.63;;;2.30;;
18399;SDS011;9326;49.468;11.008;2023-04-30T11:19:57;2.10;;;1.90;;
18399;SDS011;9326;49.468;11.008;2023-04-30T11:22:25;2.53;;;2.00;;
18399;SDS011;9326;49.468;11.008;2023-04-30T11:25:01;2.40;;;2.20;;
18399;SDS011;9326;49.468;11.008;2023-04-30T11:27:29;2.60;;;1.97;;
18399;SDS011;9326;49.468;11.008;2023-04-30T11:29:57;1.90;;;1.80;;
18399;SDS011;9326;49.468;11.008;2023-04-30T11:32:24;3.13;;;1.90;;
18399;SDS011;9326;49.468;11.008;2023-04-30T11:34:53;1.90;;;1.80;;
18399;SDS011;9326;49.468;11.008;2023-04-30T11:37:20;2.00;;;1.73;;
18399;SDS011;9326;49.468;11.008;2023-04-30T11:39:48;2.57;;;1.80;;
18399;SDS011;9326;49.468;11.008;2023-04-30T11:42:16;2.23;;;1.50;;
18399;SDS011;9326;49.468;11.008;2023-04-30T11:44:43;1.70;;;1.60;;
18399;SDS011;9326;49.468;11.008;2023-04-30T11:47:11;1.90;;;1.80;;
18399;SDS011;9326;49.468;11.008;2023-04-30T11:49:39;1.60;;;1.50;;
18399;SDS011;9326;49.468;11.008;2023-04-30T11:52:07;2.73;;;1.80;;
18399;SDS011;9326;49.468;11.008;2023-04-30T11:54:35;2.00;;;1.80;;
18399;SDS011;9326;49.468;11.008;2023-04-30T11:57:02;2.90;;;1.60;;
18399;SDS011;9326;49.468;11.008;2023-04-30T11:59:30;1.87;;;1.77;;
18399;SDS011;9326;49.468;11.008;2023-04-30T12:01:57;1.70;;;1.60;;
18399;SDS011;9326;49.468;11.008;2023-04-30T12:04:24;1.50;;;1.40;;
18399;SDS011;9326;49.468;11.008;2023-04-30T12:06:52;1.40;;;1.40;;
18399;SDS011;9326;49.468;11.008;2023-04-30T12:09:20;2.83;;;1.73;;
18399;SDS011;9326;49.468;11.008;2023-04-30T12:11:47;1.23;;;1.20;;
18399;SDS011;9326;49.468;11.008;2023-04-30T12:14:14;2.00;;;1.70;;
18399;SDS011;9326;49.468;11.008;2023-04-30T12:16:42;1.70;;;1.60;;
18399;SDS011;9326;49.468;11.008;2023-04-30T12:19:13;2.07;;;1.70;;
18399;SDS011;9326;49.468;11.008;2023-04-30T12:21:40;1.60;;;1.50;;
18399;SDS011;9326;49.468;11.008;2023-04-30T12:24:09;1.87;;;1.57;;
18399;SDS011;9326;49.468;11.008;2023-04-30T12:26:38;1.70;;;1.60;;
18399;SDS011;9326;49.468;11.008;2023-04-30T12:29:07;1.87;;;1.40;;
18399;SDS011;9326;49.468;11.008;2023-04-30T12:31:35;1.63;;;1.53;;
18399;SDS011;9326;49.468;11.008;2023-04-30T12:34:03;1.63;;;1.53;;
18399;SDS011;9326;49.468;11.008;2023-04-30T12:36:31;1.53;;;1.43;;
18399;SDS011;9326;49.468;11.008;2023-04-30T12:39:07;1.20;;;1.20;;
18399;SDS011;9326;49.468;11.008;2023-04-30T12:41:35;1.37;;;1.20;;
18399;SDS011;9326;49.468;11.008;2023-04-30T12:44:13;1.60;;;1.17;;
18399;SDS011;9326;49.468;11.008;2023-04-30T12:46:40;1.63;;;1.40;;
18399;SDS011;9326;49.468;11.008;2023-04-30T12:49:07;1.93;;;1.50;;
18399;SDS011;9326;49.468;11.008;2023-04-30T12:51:35;1.50;;;1.40;;
18399;SDS011;9326;49.468;11.008;2023-04-30T12:54:04;2.23;;;1.30;;
18399;SDS011;9326;49.468;11.008;2023-04-30T12:56:31;1.30;;;1.20;;
18399;SDS011;9326;49.468;11.008;2023-04-30T12:58:59;1.60;;;1.30;;
18399;SDS011;9326;49.468;11.008;2023-04-30T13:01:27;2.00;;;1.30;;
18399;SDS011;9326;49.468;11.008;2023-04-30T13:03:55;1.57;;;1.43;;
18399;SDS011;9326;49.468;11.008;2023-04-30T13:06:22;1.30;;;1.20;;
18399;SDS011;9326;49.468;11.008;2023-04-30T13:08:49;1.50;;;1.40;;
18399;SDS011;9326;49.468;11.008;2023-04-30T13:11:16;1.27;;;1.23;;
18399;SDS011;9326;49.468;11.008;2023-04-30T13:13:44;1.47;;;1.33;;
18399;SDS011;9326;49.468;11.008;2023-04-30T13:16:11;1.30;;;1.20;;
18399;SDS011;9326;49.468;11.008;2023-04-30T13:18:39;1.50;;;1.40;;
18399;SDS011;9326;49.468;11.008;2023-04-30T13:21:07;1.30;;;1.20;;
18399;SDS011;9326;49.468;11.008;2023-04-30T13:23:34;1.13;;;0.90;;
18399;SDS011;9326;49.468;11.008;2023-04-30T13:26:01;2.03;;;1.30;;
18399;SDS011;9326;49.468;11.008;2023-04-30T13:28:28;1.47;;;1.30;;
18399;SDS011;9326;49.468;11.008;2023-04-30T13:30:55;2.67;;;1.30;;
18399;SDS011;9326;49.468;11.008;2023-04-30T13:33:22;1.17;;;1.00;;
18399;SDS011;9326;49.468;11.008;2023-04-30T13:35:51;1.50;;;1.20;;
18399;SDS011;9326;49.468;11.008;2023-04-30T13:38:18;1.13;;;1.13;;
18399;SDS011;9326;49.468;11.008;2023-04-30T13:40:46;1.77;;;1.23;;
18399;SDS011;9326;49.468;11.008;2023-04-30T13:43:13;1.97;;;1.50;;
18399;SDS011;9326;49.468;11.008;2023-04-30T13:45:40;1.40;;;1.30;;
18399;SDS011;9326;49.468;11.008;2023-04-30T13:48:07;2.23;;;1.53;;
18399;SDS011;9326;49.468;11.008;2023-04-30T13:50:34;1.47;;;1.37;;
18399;SDS011;9326;49.468;11.008;2023-04-30T13:53:02;1.60;;;1.50;;
18399;SDS011;9326;49.468;11.008;2023-04-30T13:55:29;1.87;;;1.67;;
18399;SDS011;9326;49.468;11.008;2023-04-30T13:57:56;1.50;;;1.40;;
18399;SDS011;9326;49.468;11.008;2023-04-30T14:00:24;2.80;;;1.40;;
18399;SDS011;9326;49.468;11.008;2023-04-30T14:02:51;1.40;;;1.30;;
18399;SDS011;9326;49.468;11.008;2023-04-30T14:05:19;1.50;;;1.40;;
18399;SDS011;9326;49.468;11.008;2023-04-30T14:07:46;1.57;;;1.23;;
18399;SDS011;9326;49.468;11.008;2023-04-30T14:10:15;1.30;;;1.20;;
18399;SDS011;9326;49.468;11.008;2023-04-30T14:12:42;1.43;;;1.33;;
18399;SDS011;9326;49.468;11.008;2023-04-30T14:15:09;1.33;;;1.23;;
18399;SDS011;9326;49.468;11.008;2023-04-30T14:17:36;1.83;;;1.20;;
18399;SDS011;9326;49.468;11.008;2023-04-30T14:20:03;1.30;;;1.20;;
18399;SDS011;9326;49.468;11.008;2023-04-30T14:22:31;1.17;;;0.97;;
18399;SDS011;9326;49.468;11.008;2023-04-30T14:24:58;1.50;;;1.17;;
18399;SDS011;9326;49.468;11.008;2023-04-30T14:27:27;2.07;;;1.13;;
18399;SDS011;9326;49.468;11.008;2023-04-30T14:29:54;2.30;;;1.30;;
18399;SDS011;9326;49.468;11.008;2023-04-30T14:32:23;1.20;;;1.20;;
18399;SDS011;9326;49.468;11.008;2023-04-30T14:34:50;1.87;;;1.30;;
18399;SDS011;9326;49.468;11.008;2023-04-30T14:37:17;2.00;;;1.20;;
18399;SDS011;9326;49.468;11.008;2023-04-30T14:39:44;1.77;;;1.17;;
18399;SDS011;9326;49.468;11.008;2023-04-30T14:42:11;1.30;;;1.30;;
18399;SDS011;9326;49.468;11.008;2023-04-30T14:44:40;1.30;;;1.20;;
18399;SDS011;9326;49.468;11.008;2023-04-30T14:47:07;0.90;;;0.90;;
18399;SDS011;9326;49.468;11.008;2023-04-30T14:49:34;0.80;;;0.80;;
18399;SDS011;9326;49.468;11.008;2023-04-30T14:52:01;2.53;;;1.47;;
18399;SDS011;9326;49.468;11.008;2023-04-30T14:54:29;1.30;;;1.10;;
18399;SDS011;9326;49.468;11.008;2023-04-30T14:56:56;1.57;;;1.10;;
18399;SDS011;9326;49.468;11.008;2023-04-30T14:59:23;1.83;;;1.20;;
18399;SDS011;9326;49.468;11.008;2023-04-30T15:01:51;1.60;;;1.50;;
18399;SDS011;9326;49.468;11.008;2023-04-30T15:04:18;1.27;;;1.27;;
18399;SDS011;9326;49.468;11.008;2023-04-30T15:06:45;1.37;;;1.37;;
18399;SDS011;9326;49.468;11.008;2023-04-30T15:09:13;1.87;;;1.40;;
18399;SDS011;9326;49.468;11.008;2023-04-30T15:11:39;1.40;;;1.30;;
18399;SDS011;9326;49.468;11.008;2023-04-30T15:14:07;1.40;;;1.30;;
18399;SDS011;9326;49.468;11.008;2023-04-30T15:16:34;1.70;;;1.60;;
18399;SDS011;9326;49.468;11.008;2023-04-30T15:19:03;1.30;;;1.20;;
18399;SDS011;9326;49.468;11.008;2023-04-30T15:21:30;2.17;;;1.50;;
18399;SDS011;9326;49.468;11.008;2023-04-30T15:23:57;1.37;;;1.27;;
18399;SDS011;9326;49.468;11.008;2023-04-30T15:26:25;1.20;;;1.10;;
18399;SDS011;9326;49.468;11.008;2023-04-30T15:28:53;1.23;;;1.00;;
18399;SDS011;9326;49.468;11.008;2023-04-30T15:31:21;1.37;;;1.27;;
18399;SDS011;9326;49.468;11.008;2023-04-30T15:33:48;0.93;;;0.93;;
18399;SDS011;9326;49.468;11.008;2023-04-30T15:36:17;1.30;;;1.20;;
18399;SDS011;9326;49.468;11.008;2023-04-30T15:38:46;6.70;;;4.07;;
18399;SDS011;9326;49.468;11.008;2023-04-30T15:41:13;2.60;;;1.10;;
18399;SDS011;9326;49.468;11.008;2023-04-30T15:43:40;1.87;;;1.70;;
18399;SDS011;9326;49.468;11.008;2023-04-30T15:46:07;1.70;;;1.20;;
18399;SDS011;9326;49.468;11.008;2023-04-30T15:48:34;1.90;;;1.20;;
18399;SDS011;9326;49.468;11.008;2023-04-30T15:51:01;1.20;;;1.20;;
18399;SDS011;9326;49.468;11.008;2023-04-30T15:53:29;1.30;;;1.20;;
18399;SDS011;9326;49.468;11.008;2023-04-30T15:55:56;1.03;;;1.03;;
18399;SDS011;9326;49.468;11.008;2023-04-30T15:58:23;1.40;;;1.30;;
18399;SDS011;9326;49.468;11.008;2023-04-30T16:00:50;1.80;;;1.13;;
18399;SDS011;9326;49.468;11.008;2023-04-30T16:03:17;2.20;;;1.10;;
18399;SDS011;9326;49.468;11.008;2023-04-30T16:05:45;1.27;;;1.17;;
18399;SDS011;9326;49.468;11.008;2023-04-30T16:08:12;1.20;;;1.20;;
18399;SDS011;9326;49.468;11.008;2023-04-30T16:10:40;1.30;;;1.20;;
18399;SDS011;9326;49.468;11.008;2023-04-30T16:13:07;1.10;;;1.10;;
18399;SDS011;9326;49.468;11.008;2023-04-30T16:15:34;1.17;;;1.10;;
18399;SDS011;9326;49.468;11.008;2023-04-30T16:18:01;1.33;;;1.30;;
18399;SDS011;9326;49.468;11.008;2023-04-30T16:20:28;1.23;;;1.13;;
18399;SDS011;9326;49.468;11.008;2023-04-30T16:22:56;1.40;;;1.30;;
18399;SDS011;9326;49.468;11.008;2023-04-30T16:25:23;2.27;;;1.37;;
18399;SDS011;9326;49.468;11.008;2023-04-30T16:27:52;1.30;;;1.30;;
18399;SDS011;9326;49.468;11.008;2023-04-30T16:30:19;1.20;;;1.10;;
18399;SDS011;9326;49.468;11.008;2023-04-30T16:32:46;1.63;;;1.33;;
18399;SDS011;9326;49.468;11.008;2023-04-30T16:35:13;1.80;;;1.30;;
18399;SDS011;9326;49.468;11.008;2023-04-30T16:37:40;1.60;;;1.50;;
18399;SDS011;9326;49.468;11.008;2023-04-30T16:40:08;1.30;;;1.20;;
18399;SDS011;9326;49.468;11.008;2023-04-30T16:42:35;1.57;;;1.13;;
18399;SDS011;9326;49.468;11.008;2023-04-30T16:45:03;1.30;;;1.20;;
18399;SDS011;9326;49.468;11.008;2023-04-30T16:47:30;1.47;;;1.23;;
18399;SDS011;9326;49.468;11.008;2023-04-30T16:49:57;1.23;;;1.20;;
18399;SDS011;9326;49.468;11.008;2023-04-30T16:52:24;1.47;;;1.20;;
18399;SDS011;9326;49.468;11.008;2023-04-30T16:54:51;1.40;;;1.30;;
18399;SDS011;9326;49.468;11.008;2023-04-30T16:57:18;1.20;;;1.10;;
18399;SDS011;9326;49.468;11.008;2023-04-30T16:59:46;1.30;;;1.20;;
18399;SDS011;9326;49.468;11.008;2023-04-30T17:02:14;1.50;;;1.40;;
18399;SDS011;9326;49.468;11.008;2023-04-30T17:04:41;1.20;;;1.20;;
18399;SDS011;9326;49.468;11.008;2023-04-30T17:07:08;1.40;;;1.30;;
18399;SDS011;9326;49.468;11.008;2023-04-30T17:09:36;1.40;;;1.30;;
18399;SDS011;9326;49.468;11.008;2023-04-30T17:12:03;1.80;;;1.20;;
18399;SDS011;9326;49.468;11.008;2023-04-30T17:14:31;2.00;;;1.20;;
18399;SDS011;9326;49.468;11.008;2023-04-30T17:16:58;1.20;;;1.20;;
18399;SDS011;9326;49.468;11.008;2023-04-30T17:19:27;1.57;;;1.43;;
18399;SDS011;9326;49.468;11.008;2023-04-30T17:21:54;1.10;;;1.10;;
18399;SDS011;9326;49.468;11.008;2023-04-30T17:24:21;1.20;;;1.10;;
18399;SDS011;9326;49.468;11.008;2023-04-30T17:26:48;1.30;;;1.10;;
18399;SDS011;9326;49.468;11.008;2023-04-30T17:29:15;1.40;;;1.30;;
18399;SDS011;9326;49.468;11.008;2023-04-30T17:31:43;1.10;;;1.10;;
18399;SDS011;9326;49.468;11.008;2023-04-30T17:34:10;2.53;;;1.40;;
18399;SDS011;9326;49.468;11.008;2023-04-30T17:36:39;2.20;;;1.40;;
18399;SDS011;9326;49.468;11.008;2023-04-30T17:39:06;2.13;;;1.37;;
18399;SDS011;9326;49.468;11.008;2023-04-30T17:41:33;1.70;;;1.40;;
18399;SDS011;9326;49.468;11.008;2023-04-30T17:44:00;1.47;;;1.37;;
18399;SDS011;9326;49.468;11.008;2023-04-30T17:46:27;2.07;;;1.40;;
18399;SDS011;9326;49.468;11.008;2023-04-30T17:48:54;1.40;;;1.30;;
18399;SDS011;9326;49.468;11.008;2023-04-30T17:51:25;1.33;;;1.20;;
18399;SDS011;9326;49.468;11.008;2023-04-30T17:53:54;1.53;;;1.20;;
18399;SDS011;9326;49.468;11.008;2023-04-30T17:56:21;1.40;;;1.30;;
18399;SDS011;9326;49.468;11.008;2023-04-30T17:58:50;2.07;;;1.37;;
18399;SDS011;9326;49.468;11.008;2023-04-30T18:01:17;1.30;;;1.30;;
18399;SDS011;9326;49.468;11.008;2023-04-30T18:03:44;1.17;;;1.00;;
18399;SDS011;9326;49.468;11.008;2023-04-30T18:06:13;1.10;;;1.10;;
18399;SDS011;9326;49.468;11.008;2023-04-30T18:08:40;1.17;;;1.00;;
18399;SDS011;9326;49.468;11.008;2023-04-30T18:11:08;1.33;;;1.00;;
18399;SDS011;9326;49.468;11.008;2023-04-30T18:13:35;1.40;;;1.30;;
18399;SDS011;9326;49.468;11.008;2023-04-30T18:16:02;2.13;;;1.13;;
18399;SDS011;9326;49.468;11.008;2023-04-30T18:18:29;1.33;;;1.23;;
18399;SDS011;9326;49.468;11.008;2023-04-30T18:20:56;1.47;;;1.37;;
18399;SDS011;9326;49.468;11.008;2023-04-30T18:23:23;1.43;;;1.20;;
18399;SDS011;9326;49.468;11.008;2023-04-30T18:25:50;1.40;;;1.10;;
18399;SDS011;9326;49.468;11.008;2023-04-30T18:28:19;1.70;;;1.43;;
18399;SDS011;9326;49.468;11.008;2023-04-30T18:30:48;1.70;;;1.10;;
18399;SDS011;9326;49.468;11.008;2023-04-30T18:33:15;1.40;;;1.10;;
18399;SDS011;9326;49.468;11.008;2023-04-30T18:35:42;1.30;;;1.20;;
18399;SDS011;9326;49.468;11.008;2023-04-30T18:38:13;1.30;;;1.20;;
18399;SDS011;9326;49.468;11.008;2023-04-30T18:40:40;1.30;;;1.20;;
18399;SDS011;9326;49.468;11.008;2023-04-30T18:43:07;1.30;;;1.30;;
18399;SDS011;9326;49.468;11.008;2023-04-30T18:45:36;1.77;;;1.27;;
18399;SDS011;9326;49.468;11.008;2023-04-30T18:48:03;1.40;;;1.30;;
18399;SDS011;9326;49.468;11.008;2023-04-30T18:50:31;1.77;;;1.10;;
18399;SDS011;9326;49.468;11.008;2023-04-30T18:52:58;1.43;;;1.33;;
18399;SDS011;9326;49.468;11.008;2023-04-30T18:55:25;4.70;;;1.50;;
18399;SDS011;9326;49.468;11.008;2023-04-30T18:57:52;1.40;;;1.30;;
18399;SDS011;9326;49.468;11.008;2023-04-30T19:00:20;3.17;;;1.10;;
18399;SDS011;9326;49.468;11.008;2023-04-30T19:02:49;1.20;;;1.10;;
18399;SDS011;9326;49.468;11.008;2023-04-30T19:05:16;1.30;;;1.20;;
18399;SDS011;9326;49.468;11.008;2023-04-30T19:07:43;1.77;;;1.40;;
18399;SDS011;9326;49.468;11.008;2023-04-30T19:10:10;1.80;;;1.30;;
18399;SDS011;9326;49.468;11.008;2023-04-30T19:12:37;1.60;;;1.50;;
18399;SDS011;9326;49.468;11.008;2023-04-30T19:15:05;1.93;;;1.33;;
18399;SDS011;9326;49.468;11.008;2023-04-30T19:17:33;1.90;;;1.57;;
18399;SDS011;9326;49.468;11.008;2023-04-30T19:20:02;1.57;;;1.47;;
18399;SDS011;9326;49.468;11.008;2023-04-30T19:22:29;2.00;;;1.50;;
18399;SDS011;9326;49.468;11.008;2023-04-30T19:24:56;1.60;;;1.50;;
18399;SDS011;9326;49.468;11.008;2023-04-30T19:27:23;2.00;;;1.60;;
18399;SDS011;9326;49.468;11.008;2023-04-30T19:29:50;1.97;;;1.50;;
18399;SDS011;9326;49.468;11.008;2023-04-30T19:32:17;2.87;;;1.77;;
18399;SDS011;9326;49.468;11.008;2023-04-30T19:34:44;2.53;;;1.80;;
18399;SDS011;9326;49.468;11.008;2023-04-30T19:37:13;2.27;;;1.80;;
18399;SDS011;9326;49.468;11.008;2023-04-30T19:39:40;1.87;;;1.60;;
18399;SDS011;9326;49.468;11.008;2023-04-30T19:42:07;2.60;;;1.80;;
18399;SDS011;9326;49.468;11.008;2023-04-30T19:44:35;3.00;;;2.20;;
18399;SDS011;9326;49.468;11.008;2023-04-30T19:47:02;2.27;;;2.00;;
18399;SDS011;9326;49.468;11.008;2023-04-30T19:49:29;3.23;;;2.00;;
18399;SDS011;9326;49.468;11.008;2023-04-30T19:51:57;2.97;;;2.20;;